TNCC

Hato International Airport

Willemstad, Curaçao
TAF TNCC 201530Z 2018/2118 12017KT 9999 SCT024
Issued Valid From Valid To
Jan-20 @ 15:30 UTC
(6 hours ago)
Jan-20 @ 18:00 UTC
(3 hours ago)
Jan-21 @ 18:00 UTC
(in 21 hours)
Jan-20 @ 18:00 to Jan-21 @ 18:00
TAF TNCC 201530Z 2018/2118 12017KT 9999 SCT024
Wind Visibility Clouds
120° at 17 knots 10,000+ meters
  • Scattered at 2,400' AGL
TAF TNCC 201530Z 2018/2118 12017KT 9999 SCT024
Issued Jan-20 @ 15:30 UTC
(6 hours ago)
Valid From Jan-20 @ 18:00 UTC
(3 hours ago)
Valid To Jan-21 @ 18:00 UTC
(in 21 hours)
Jan-20 @ 18:00 - Jan-21 @ 18:00
Wind Visibility
120° at 17 knots 10,000+ meters
Clouds
  • Scattered at 2,400' AGL